Finly, Indiana
Current Conditions -  °F | °C
As of 1:53 AM on Monday 22 Dec 2014 (Local Time) from KGEZ Reporting Station
Clear Clear  
Wind Chill: -6°   Ceiling: Unl
Heat Index: -1°   Visibility: 7mi
Dew Point: -4°   Wind: 9mph
Humidity: 82%   Direction: 100°E
Pressure: 30.03"   Gusts: NA
Location:  39.71°N, 85.82°W
Report Text: KGEZ 220653Z AUTO 10008KT 7SM CLR M01/M04 A3003 RMK AO2 SLP175 T10111039
Loading
Personal Weather Stations






























Interactive Weather Map New forecast layout! Learn more

10-Day Weather Forecast

Advertisements
Track Severe Weather on mobile